This is the latest recevied weather packets stored in our database for station/object SQ9MHX-13. If no packets are shown the sender has not sent any weather packets the latest 10 day(s).
| Time | Temp. | Humidity | Pressure | Rain* | Wind** | Luminosity | Snow |
|---|---|---|---|---|---|---|---|
| 1777768280 | 7.78° C | 71% | 978.9 hPa | - | 0 m/s | - | - |
| 1777767982 | 8.89° C | 70% | 978.4 hPa | - | 0 m/s | - | - |
| 1777767684 | 8.89° C | 69% | 978.4 hPa | - | 0 m/s | - | - |
| 1777767385 | 8.89° C | 70% | 978.7 hPa | - | 0 m/s | - | - |
| 1777767087 | 7.78° C | 73% | 979 hPa | - | 0 m/s | - | - |
| 1777766789 | 7.78° C | 74% | 979.2 hPa | - | 0 m/s | - | - |
| 1777766491 | 7.78° C | 74% | 979.2 hPa | - | 0 m/s | - | - |
| 1777766192 | 7.78° C | 73% | 979.2 hPa | - | 0 m/s | - | - |
| 1777765894 | 7.78° C | 73% | 979.4 hPa | - | 0 m/s | - | - |
| 1777765596 | 7.78° C | 72% | 979.6 hPa | - | 0 m/s | - | - |
| 1777765298 | 7.78° C | 72% | 980.3 hPa | - | 0 m/s | - | - |
| 1777764999 | 7.22° C | 77% | 981.8 hPa | - | 0 m/s | - | - |
| 1777764403 | 7.78° C | 73% | 981 hPa | - | 0 m/s | - | - |
| 1777764104 | 7.78° C | 72% | 980.3 hPa | - | 0 m/s | - | - |
| 1777763806 | 7.78° C | 71% | 979.8 hPa | - | 0 m/s | - | - |
| 1777763508 | 8.89° C | 71% | 980.1 hPa | - | 0 m/s | - | - |
| 1777763210 | 7.78° C | 73% | 980.9 hPa | - | 0 m/s | - | - |
| 1777762911 | 7.22° C | 72% | 981.2 hPa | - | 0 m/s | - | - |
| 1777762613 | 7.78° C | 72% | 980.5 hPa | - | 0 m/s | - | - |
| 1777762315 | 7.78° C | 71% | 980 hPa | - | 0 m/s | - | - |
| 1777762017 | 8.89° C | 68% | 979.2 hPa | - | 0 m/s | - | - |
| 1777761718 | 8.89° C | 66% | 978.5 hPa | - | 0 m/s | - | - |
| 1777761420 | 10° C | 66% | 978.2 hPa | - | 0 m/s | - | - |
| 1777761122 | 10° C | 66% | 978.3 hPa | - | 0 m/s | - | - |
| 1777760823 | 10° C | 66% | 978.8 hPa | - | 0 m/s | - | - |
* Rain since midnight (hover to see other rain measurements)
** Current wind speed in m/s (hover to see current wind gust speed)